createdAt,value
2022-12-09T00:04:45.226Z,96214.63
2022-12-09T00:09:47.234Z,96203.47
2022-12-09T00:14:49.212Z,96202.75
2022-12-09T00:19:51.131Z,96195.50
2022-12-09T00:24:52.733Z,96192.41
2022-12-09T00:29:54.931Z,96191.19
2022-12-09T00:34:56.817Z,96194.59
2022-12-09T00:39:58.467Z,96181.81
2022-12-09T00:45:00.189Z,96175.34
2022-12-09T00:50:01.897Z,96168.19
2022-12-09T00:55:03.937Z,96173.50
2022-12-09T01:00:07.036Z,96174.09
2022-12-09T01:05:09.309Z,96159.38
2022-12-09T01:10:12.107Z,96156.09
2022-12-09T01:15:14.610Z,96153.44
2022-12-09T01:20:16.398Z,96149.69
2022-12-09T01:25:18.032Z,96152.31
2022-12-09T01:30:20.021Z,96159.72
2022-12-09T01:35:22.345Z,96142.97
2022-12-09T01:40:24.279Z,96141.53
2022-12-09T01:45:36.709Z,96131.16
2022-12-09T01:50:39.625Z,96121.16
2022-12-09T01:55:41.935Z,96109.69
2022-12-09T02:00:44.508Z,96104.66
2022-12-09T02:05:47.432Z,96104.25
2022-12-09T02:10:49.469Z,96104.69
2022-12-09T02:15:53.458Z,96104.53
2022-12-09T02:21:02.618Z,96079.19
2022-12-09T02:26:17.963Z,96098.63
2022-12-09T02:31:27.745Z,96097.84
2022-12-09T02:36:33.786Z,96103.50
2022-12-09T02:41:37.409Z,96093.69
2022-12-09T02:46:41.161Z,96091.44
2022-12-09T02:51:46.296Z,96067.88
2022-12-09T02:56:53.506Z,96060.81
2022-12-09T03:01:56.704Z,96070.66
2022-12-09T03:07:11.164Z,96086.34
2022-12-09T03:12:15.105Z,96068.03
2022-12-09T03:17:36.964Z,96058.38
2022-12-09T03:22:41.523Z,96047.69
2022-12-09T03:27:47.999Z,96040.56
2022-12-09T03:32:51.003Z,96022.00
2022-12-09T03:37:53.866Z,96030.59
2022-12-09T03:43:01.528Z,96034.75
2022-12-09T03:48:03.659Z,96020.00
2022-12-09T03:53:13.165Z,96000.91
2022-12-09T03:58:16.386Z,96024.47
2022-12-09T04:03:18.890Z,96045.91
2022-12-09T04:08:20.791Z,96030.69
2022-12-09T04:13:22.644Z,96040.63
2022-12-09T04:18:24.435Z,96025.47
2022-12-09T04:23:26.276Z,96023.34
2022-12-09T04:28:27.931Z,96019.09
2022-12-09T04:33:30.003Z,96003.56
2022-12-09T04:38:32.189Z,95988.19
2022-12-09T04:43:34.429Z,95979.06
2022-12-09T04:48:36.618Z,95961.47
2022-12-09T04:53:38.861Z,95948.94
2022-12-09T04:58:40.606Z,95977.50
2022-12-09T05:03:42.730Z,95967.44
2022-12-09T05:08:44.751Z,95947.97
2022-12-09T05:13:47.177Z,95940.47
2022-12-09T05:18:49.117Z,95958.75
2022-12-09T05:23:51.115Z,95963.91
2022-12-09T05:28:53.104Z,95951.16
2022-12-09T05:33:54.971Z,95945.84
2022-12-09T05:38:57.245Z,95936.69
2022-12-09T05:43:59.500Z,95917.25
2022-12-09T05:49:01.953Z,95928.19
2022-12-09T05:54:04.736Z,95922.94
2022-12-09T05:59:06.714Z,95928.53
2022-12-09T06:04:08.458Z,95915.78
2022-12-09T06:09:12.224Z,95909.88
2022-12-09T06:14:14.437Z,95907.22
2022-12-09T06:19:16.209Z,95898.00
2022-12-09T06:24:18.305Z,95894.69
2022-12-09T06:29:20.190Z,95905.19
2022-12-09T06:34:22.346Z,95903.34
2022-12-09T06:39:24.635Z,95895.41
2022-12-09T06:44:26.908Z,95892.91
2022-12-09T06:49:28.713Z,95895.38
2022-12-09T06:54:30.982Z,95898.34
2022-12-09T06:59:32.893Z,95891.34
2022-12-09T07:04:35.247Z,95875.13
2022-12-09T07:09:37.885Z,95879.41
2022-12-09T07:14:39.948Z,95881.03
2022-12-09T07:19:42.022Z,95888.88
2022-12-09T07:24:44.591Z,95894.78
2022-12-09T07:29:47.064Z,95885.44
2022-12-09T07:34:49.437Z,95878.41
2022-12-09T07:39:51.453Z,95865.16
2022-12-09T07:44:53.442Z,95865.97
2022-12-09T07:49:55.441Z,95867.03
2022-12-09T07:55:00.863Z,95868.38
2022-12-09T08:00:04.238Z,95863.84
2022-12-09T08:05:13.670Z,95867.63
2022-12-09T08:10:15.836Z,95864.91
2022-12-09T08:15:19.473Z,95850.91
2022-12-09T08:20:27.406Z,95841.03
2022-12-09T08:25:30.980Z,95846.25
2022-12-09T08:30:32.810Z,95835.94
2022-12-09T08:35:36.720Z,95836.53
2022-12-09T08:40:38.877Z,95831.66
2022-12-09T08:45:41.621Z,95826.59
2022-12-09T08:50:43.441Z,95816.63
2022-12-09T08:55:45.543Z,95821.50
2022-12-09T09:00:47.551Z,95825.84
2022-12-09T09:05:49.570Z,95813.94
2022-12-09T09:10:51.956Z,95830.16
2022-12-09T09:15:54.182Z,95817.84
2022-12-09T09:20:59.602Z,95813.56
2022-12-09T09:26:01.831Z,95795.16
2022-12-09T09:31:05.393Z,95801.94
2022-12-09T09:36:10.425Z,95807.66
2022-12-09T09:41:18.725Z,95797.47
2022-12-09T09:46:28.611Z,95804.81
2022-12-09T09:51:33.012Z,95804.59
2022-12-09T09:56:37.622Z,95812.72
2022-12-09T10:01:39.764Z,95814.34
2022-12-09T10:06:49.903Z,95803.53
2022-12-09T10:11:52.655Z,95788.47
2022-12-09T10:17:06.974Z,95787.97
2022-12-09T10:22:12.781Z,95785.19
2022-12-09T10:27:21.192Z,95767.88
2022-12-09T10:32:24.976Z,95777.59
2022-12-09T10:37:27.601Z,95768.97
2022-12-09T10:42:50.544Z,95757.25
2022-12-09T10:47:53.262Z,95747.22
2022-12-09T10:52:56.154Z,95757.16
2022-12-09T10:58:11.903Z,95743.88
2022-12-09T11:03:24.681Z,95732.28
2022-12-09T11:08:26.651Z,95726.88
2022-12-09T11:13:37.278Z,95725.78
2022-12-09T11:18:44.339Z,95727.97
2022-12-09T11:24:00.783Z,95716.06
2022-12-09T11:29:15.670Z,95699.84
2022-12-09T11:34:23.294Z,95696.56
2022-12-09T11:39:29.900Z,95692.78
2022-12-09T11:44:32.438Z,95689.03
2022-12-09T11:49:54.437Z,95693.41
2022-12-09T11:55:15.066Z,95682.06
2022-12-09T12:00:21.387Z,95670.22
2022-12-09T12:05:42.092Z,95669.38
2022-12-09T12:10:46.872Z,95655.31
2022-12-09T12:15:48.458Z,95665.56
2022-12-09T12:21:02.387Z,95662.56
2022-12-09T12:26:10.984Z,95663.59
2022-12-09T12:31:15.359Z,95657.63
2022-12-09T12:36:32.340Z,95639.84
2022-12-09T12:41:54.478Z,95635.00
2022-12-09T12:47:07.862Z,95639.94
2022-12-09T12:52:54.194Z,95627.50
2022-12-09T12:58:02.196Z,95637.00
2022-12-09T13:03:25.986Z,95635.09
2022-12-09T13:08:35.621Z,95648.66
2022-12-09T13:13:50.567Z,95645.69
2022-12-09T13:18:52.444Z,95645.97
2022-12-09T13:24:21.781Z,95647.28
2022-12-09T13:29:38.117Z,95642.97
2022-12-09T13:34:51.485Z,95624.84
2022-12-09T13:39:54.532Z,95624.31
2022-12-09T13:45:03.608Z,95633.50
2022-12-09T13:50:06.925Z,95639.47
2022-12-09T13:55:19.750Z,95638.91
2022-12-09T14:00:21.631Z,95634.84
2022-12-09T14:05:25.982Z,95642.69
2022-12-09T14:10:44.107Z,95635.41
2022-12-09T14:15:46.299Z,95645.97
2022-12-09T14:21:07.843Z,95655.69
2022-12-09T14:26:09.500Z,95655.41
2022-12-09T14:31:11.178Z,95652.94
2022-12-09T14:36:12.820Z,95659.41
2022-12-09T14:41:23.322Z,95658.94
2022-12-09T14:46:30.335Z,95661.28
2022-12-09T14:51:36.563Z,95669.31
2022-12-09T14:56:38.502Z,95666.25
2022-12-09T15:01:57.161Z,95664.63
2022-12-09T15:07:08.010Z,95680.56
2022-12-09T15:12:11.160Z,95678.34
2022-12-09T15:17:22.468Z,95678.28
2022-12-09T15:22:27.673Z,95682.59
2022-12-09T15:27:29.970Z,95679.31
2022-12-09T15:32:31.794Z,95677.19
2022-12-09T15:37:33.730Z,95678.22
2022-12-09T15:42:38.472Z,95682.47
2022-12-09T15:47:40.083Z,95682.47
2022-12-09T15:52:44.944Z,95688.91
2022-12-09T15:57:48.888Z,95688.97
2022-12-09T16:02:51.019Z,95689.53
2022-12-09T16:07:54.461Z,95702.28
2022-12-09T16:13:06.881Z,95706.41
2022-12-09T16:18:13.632Z,95709.38
2022-12-09T16:23:20.559Z,95698.81
2022-12-09T16:28:23.338Z,95703.06
2022-12-09T16:33:25.349Z,95711.75
2022-12-09T16:38:27.033Z,95711.03
2022-12-09T16:43:30.409Z,95719.97
2022-12-09T16:48:32.039Z,95721.31
2022-12-09T16:53:35.191Z,95726.53
2022-12-09T16:58:37.281Z,95726.06
2022-12-09T17:03:44.591Z,95729.28
2022-12-09T17:08:46.532Z,95725.91
2022-12-09T17:13:51.282Z,95737.25
2022-12-09T17:18:53.024Z,95734.59
2022-12-09T17:23:54.788Z,95739.47
2022-12-09T17:29:01.632Z,95740.06
2022-12-09T17:34:03.592Z,95741.41
2022-12-09T17:39:06.815Z,95745.97
2022-12-09T17:44:08.880Z,95752.22
2022-12-09T17:49:10.530Z,95752.44
2022-12-09T17:54:12.139Z,95755.59
2022-12-09T17:59:15.476Z,95768.59
2022-12-09T18:04:17.365Z,95767.69
2022-12-09T18:09:19.129Z,95765.22
2022-12-09T18:14:20.835Z,95769.88
2022-12-09T18:19:24.843Z,95778.88
2022-12-09T18:24:26.942Z,95772.97
2022-12-09T18:29:29.133Z,95782.69
2022-12-09T18:34:32.841Z,95798.91
2022-12-09T18:39:34.493Z,95796.22
2022-12-09T18:44:36.127Z,95796.16
2022-12-09T18:49:37.747Z,95800.00
2022-12-09T18:54:39.420Z,95798.66
2022-12-09T18:59:41.008Z,95804.31
2022-12-09T19:04:42.642Z,95817.59
2022-12-09T19:09:44.204Z,95812.03
2022-12-09T19:14:45.754Z,95812.25
2022-12-09T19:19:48.388Z,95805.81
2022-12-09T19:24:49.979Z,95804.25
2022-12-09T19:29:51.629Z,95815.91
2022-12-09T19:34:53.297Z,95817.28
2022-12-09T19:39:55.034Z,95808.06
2022-12-09T19:45:01.906Z,95828.56
2022-12-09T19:50:05.259Z,95831.81
2022-12-09T19:55:08.355Z,95827.25
2022-12-09T20:00:11.222Z,95826.94
2022-12-09T20:05:12.884Z,95837.06
2022-12-09T20:10:16.870Z,95834.03
2022-12-09T20:15:18.457Z,95836.72
2022-12-09T20:20:20.049Z,95847.84
2022-12-09T20:25:21.693Z,95843.63
2022-12-09T20:30:23.323Z,95841.53
2022-12-09T20:35:25.592Z,95848.34
2022-12-09T20:40:27.266Z,95865.94
2022-12-09T20:45:28.877Z,95870.81
2022-12-09T20:50:36.793Z,95873.53
2022-12-09T20:55:40.134Z,95874.88
2022-12-09T21:00:41.908Z,95868.16
2022-12-09T21:05:43.548Z,95868.72
2022-12-09T21:10:45.181Z,95869.78
2022-12-09T21:15:46.816Z,95875.19
2022-12-09T21:20:48.396Z,95877.34
2022-12-09T21:25:50.005Z,95879.53
2022-12-09T21:30:52.224Z,95882.50
2022-12-09T21:35:53.974Z,95882.22
2022-12-09T21:40:55.568Z,95875.75
2022-12-09T21:45:57.805Z,95874.19
2022-12-09T21:51:00.536Z,95876.25
2022-12-09T21:56:06.118Z,95882.66
2022-12-09T22:01:09.135Z,95886.97
2022-12-09T22:06:11.435Z,95884.72
2022-12-09T22:11:15.288Z,95885.59
2022-12-09T22:16:18.616Z,95892.97
2022-12-09T22:21:26.060Z,95896.78
2022-12-09T22:26:29.118Z,95901.69
2022-12-09T22:31:32.646Z,95891.44
2022-12-09T22:36:36.753Z,95885.78
2022-12-09T22:41:38.510Z,95878.69
2022-12-09T22:46:41.617Z,95881.97
2022-12-09T22:51:43.736Z,95874.94
2022-12-09T22:56:45.500Z,95880.50
2022-12-09T23:01:49.253Z,95874.56
2022-12-09T23:06:50.920Z,95877.78
2022-12-09T23:11:52.983Z,95884.47
2022-12-09T23:16:54.887Z,95883.75
2022-12-09T23:21:56.542Z,95891.13
2022-12-09T23:26:58.353Z,95886.81
2022-12-09T23:32:00.034Z,95881.06
2022-12-09T23:37:01.956Z,95879.56
2022-12-09T23:42:03.727Z,95882.66
2022-12-09T23:47:05.490Z,95887.84
2022-12-09T23:52:07.249Z,95909.78
2022-12-09T23:57:08.848Z,95907.41
